Christmas, Florida
Current Conditions -  °F | °C
As of 8:47 AM on Thursday 30 Oct 2014 (Local Time) from KTIX Reporting Station
Clear Clear  
Wind Chill: 66°   Ceiling: Unl
Heat Index: 66°   Visibility: 7mi
Dew Point: 66°   Wind: 5mph
Humidity: 100%   Direction: 280°W
Pressure: 29.99"   Gusts: NA
Location:  28.54°N, 81°W
Report Text: KTIX 301247Z 28004KT 7SM SKC 19/19 A2999
Loading
Personal Weather Stations






























Interactive Weather Map
Tropical Storm Tracking
New forecast layout! Learn more

10-Day Weather Forecast

Advertisements
Track Severe Weather on mobile